Madsen Beach, South Dakota
Current Conditions -  °F | °C
As of 2:54 PM on Tuesday 21 Oct 2014 (Local Time) from KVVV Reporting Station
Clear Clear  
Wind Chill: 68°   Ceiling: Unl
Heat Index: 68°   Visibility: 10mi
Dew Point: 41°   Wind: 23mph
Humidity: 37%   Direction: 140°SE
Pressure: 29.96"   Gusts: 28mph
Location:  45.4152°N, 96.8664°W
Report Text: KVVV 211954Z AUTO 14020G24KT 10SM CLR 20/05 A2996 RMK AO2
Loading
Personal Weather Stations






























Interactive Weather Map
Tropical Storm Tracking
New forecast layout! Learn more

10-Day Weather Forecast

Advertisements
Track Severe Weather on mobile